Time;durP1;ratioP1;P1;durP2;ratioP2;P2;SDS_P1;SDS_P2;PMS_P1;PMS_P2;Temp;Humidity;BMP_temperature;BMP_pressure;BME280_temperature;BME280_humidity;BME280_pressure;Samples;Min_cycle;Max_cycle;Signal;HPM_P1;HPM_P2
2021/12/26 00:00:49;;;;;;;57.22;42.70;;;8.50;91.40;;;;;;4969351;28;20515;-83
2021/12/26 00:03:15;;;;;;;55.65;41.97;;;8.50;91.40;;;;;;4951152;28;20456;-83
2021/12/26 00:05:41;;;;;;;57.33;42.10;;;8.50;91.40;;;;;;4952533;28;20046;-84
2021/12/26 00:08:07;;;;;;;59.35;42.90;;;8.60;91.40;;;;;;4952763;28;20046;-84
2021/12/26 00:10:33;;;;;;;54.70;41.92;;;8.60;91.30;;;;;;4954991;28;20074;-85
2021/12/26 00:12:59;;;;;;;51.80;38.90;;;8.60;91.30;;;;;;4955390;28;20046;-84
2021/12/26 00:15:25;;;;;;;53.22;39.63;;;8.60;91.30;;;;;;4965660;28;20043;-84
2021/12/26 00:17:51;;;;;;;56.15;42.00;;;8.60;91.30;;;;;;4961774;28;20038;-83
2021/12/26 00:20:18;;;;;;;51.35;38.92;;;8.60;91.30;;;;;;4942323;28;20050;-83
2021/12/26 00:22:44;;;;;;;59.05;41.22;;;8.60;91.30;;;;;;4973922;28;20094;-83
2021/12/26 00:25:11;;;;;;;53.25;40.53;;;8.60;91.40;;;;;;4969461;28;20038;-83
2021/12/26 00:27:38;;;;;;;60.08;43.35;;;8.60;91.40;;;;;;4962036;28;20126;-83
2021/12/26 00:30:07;;;;;;;52.97;41.35;;;8.50;91.40;;;;;;4964458;28;20483;-83
2021/12/26 00:32:32;;;;;;;59.13;45.45;;;8.60;91.40;;;;;;4961669;28;20464;-80
2021/12/26 00:34:58;;;;;;;52.55;39.00;;;8.50;91.30;;;;;;4957446;28;20114;-81
2021/12/26 00:37:24;;;;;;;53.65;39.22;;;8.50;91.40;;;;;;4968779;28;20440;-82
2021/12/26 00:39:49;;;;;;;50.08;37.60;;;8.50;91.40;;;;;;4954289;28;20118;-82
2021/12/26 00:42:15;;;;;;;53.20;39.53;;;8.50;91.40;;;;;;4962683;28;20031;-82
2021/12/26 00:44:41;;;;;;;53.28;39.38;;;8.50;91.40;;;;;;4951088;28;20377;-81
2021/12/26 00:47:09;;;;;;;52.10;38.60;;;8.50;91.40;;;;;;4948644;29;20031;-81
2021/12/26 00:49:35;;;;;;;51.47;38.45;;;8.50;91.40;;;;;;4964737;28;20050;-81
2021/12/26 00:52:00;;;;;;;50.85;37.78;;;8.60;91.50;;;;;;4965905;28;20043;-81
2021/12/26 00:54:26;;;;;;;54.83;39.17;;;8.60;91.40;;;;;;4964810;28;20054;-81
2021/12/26 00:56:52;;;;;;;56.58;40.33;;;8.60;91.50;;;;;;4971665;28;20047;-81
2021/12/26 00:59:18;;;;;;;51.83;37.47;;;8.60;91.40;;;;;;4966939;28;20463;-81
2021/12/26 01:01:44;;;;;;;49.28;38.08;;;8.60;91.40;;;;;;4971616;28;20047;-82
2021/12/26 01:04:12;;;;;;;51.13;38.63;;;8.70;91.40;;;;;;4962508;28;20040;-82
2021/12/26 01:06:38;;;;;;;49.75;38.35;;;8.70;91.40;;;;;;4945924;28;20058;-82
2021/12/26 01:09:08;;;;;;;53.35;39.30;;;8.70;91.40;;;;;;4949332;28;20046;-81
2021/12/26 01:11:37;;;;;;;55.10;40.38;;;8.70;91.40;;;;;;4947424;28;20447;-81
2021/12/26 01:14:06;;;;;;;54.58;40.30;;;8.70;91.30;;;;;;4959881;28;20062;-81
2021/12/26 01:16:32;;;;;;;53.90;40.75;;;8.70;91.20;;;;;;4973560;28;20050;-81
2021/12/26 01:19:15;;;;;;;54.80;41.17;;;8.70;91.20;;;;;;4963552;28;20074;-81
2021/12/26 01:21:43;;;;;;;55.17;39.58;;;8.80;91.20;;;;;;4971220;28;20491;-81
2021/12/26 01:24:12;;;;;;;51.63;38.55;;;8.80;91.10;;;;;;4952615;29;20051;-81
2021/12/26 01:26:38;;;;;;;55.08;40.85;;;8.80;91.10;;;;;;4937041;28;20129;-81
2021/12/26 01:29:05;;;;;;;55.97;40.40;;;8.80;91.10;;;;;;4949464;28;20117;-81
2021/12/26 01:31:32;;;;;;;50.35;38.78;;;8.80;91.10;;;;;;4972215;28;20043;-81
2021/12/26 01:34:01;;;;;;;50.95;37.97;;;8.80;91.10;;;;;;4972825;28;20126;-81
2021/12/26 01:36:28;;;;;;;50.53;38.47;;;8.70;91.10;;;;;;4956051;28;20420;-81
2021/12/26 01:38:57;;;;;;;50.00;37.72;;;8.70;91.20;;;;;;4966958;28;20047;-81
2021/12/26 01:41:24;;;;;;;52.50;38.80;;;8.70;91.20;;;;;;4973014;28;20057;-81
2021/12/26 01:43:53;;;;;;;50.80;37.95;;;8.80;91.30;;;;;;4972054;28;20058;-82
2021/12/26 01:46:19;;;;;;;50.15;37.80;;;8.80;91.20;;;;;;4942274;28;20043;-82
2021/12/26 01:48:45;;;;;;;53.10;36.03;;;8.80;91.20;;;;;;4971799;28;20487;-82
2021/12/26 01:51:10;;;;;;;52.22;36.97;;;8.80;91.20;;;;;;4976947;28;20063;-82
2021/12/26 01:53:38;;;;;;;46.30;34.80;;;8.80;91.20;;;;;;4964342;28;20039;-81
2021/12/26 01:56:08;;;;;;;49.15;36.95;;;8.80;91.20;;;;;;4971018;28;20487;-82
2021/12/26 01:58:36;;;;;;;47.55;35.25;;;8.80;91.20;;;;;;4943589;28;20083;-81
2021/12/26 02:01:12;;;;;;;47.05;35.78;;;8.80;91.20;;;;;;4956939;28;20035;-81
2021/12/26 02:03:39;;;;;;;53.40;38.15;;;8.70;91.20;;;;;;4958340;28;20044;-81
2021/12/26 02:06:07;;;;;;;50.28;35.92;;;8.70;91.20;;;;;;4970274;28;20411;-81
2021/12/26 02:08:33;;;;;;;47.80;36.42;;;8.70;91.30;;;;;;4972140;28;20066;-81
2021/12/26 02:11:00;;;;;;;47.30;34.67;;;8.70;91.30;;;;;;4962477;28;20545;-81
2021/12/26 02:13:28;;;;;;;50.42;36.80;;;8.70;91.30;;;;;;4965911;28;20416;-81
2021/12/26 02:15:53;;;;;;;50.17;35.10;;;8.60;91.40;;;;;;4960981;28;20047;-82
2021/12/26 02:18:19;;;;;;;49.92;35.72;;;8.70;91.40;;;;;;4957897;28;20106;-81
2021/12/26 02:28:26;;;;;;;46.97;35.17;;;8.80;91.20;;;;;;4962460;28;20383;-80
2021/12/26 02:30:55;;;;;;;46.38;34.95;;;8.90;91.20;;;;;;4966093;28;20024;-80
2021/12/26 02:33:22;;;;;;;45.33;33.92;;;8.90;91.20;;;;;;4964865;28;20031;-80
2021/12/26 02:35:49;;;;;;;47.10;34.88;;;8.90;91.10;;;;;;4967151;28;20411;-80
2021/12/26 02:38:17;;;;;;;41.75;32.65;;;8.90;91.10;;;;;;4941578;28;20070;-81
2021/12/26 02:40:47;;;;;;;42.17;32.10;;;8.80;91.00;;;;;;4948945;28;20046;-81
2021/12/26 02:43:15;;;;;;;47.33;35.72;;;8.80;91.10;;;;;;4967025;28;20122;-81
2021/12/26 02:45:41;;;;;;;46.28;34.75;;;8.70;91.20;;;;;;4942167;28;20047;-81
2021/12/26 02:48:09;;;;;;;47.63;35.13;;;8.80;91.30;;;;;;4970476;28;20109;-81
2021/12/26 02:50:35;;;;;;;45.17;34.50;;;8.80;91.30;;;;;;4940412;28;20082;-81
2021/12/26 02:53:03;;;;;;;45.80;35.38;;;8.80;91.20;;;;;;4972464;28;20048;-81
2021/12/26 02:55:29;;;;;;;45.50;34.88;;;8.90;91.20;;;;;;4966262;28;20055;-80
2021/12/26 02:58:06;;;;;;;48.45;34.92;;;8.90;91.10;;;;;;4962118;28;20058;-80
2021/12/26 03:00:43;;;;;;;45.33;34.05;;;8.90;91.10;;;;;;4967452;28;20372;-80
2021/12/26 03:03:09;;;;;;;42.92;32.33;;;8.90;91.10;;;;;;4967561;28;20118;-81
2021/12/26 03:05:38;;;;;;;45.05;32.88;;;8.90;91.10;;;;;;4957629;28;20484;-81
2021/12/26 03:08:06;;;;;;;45.90;33.35;;;8.90;91.00;;;;;;4937641;29;20053;-81
2021/12/26 03:10:32;;;;;;;42.47;32.88;;;9.00;91.00;;;;;;4954626;28;20539;-81
2021/12/26 03:13:01;;;;;;;46.42;34.70;;;8.90;91.00;;;;;;4955412;29;20526;-81
2021/12/26 03:15:29;;;;;;;46.28;34.72;;;9.00;90.90;;;;;;4954703;29;20042;-81
2021/12/26 03:17:55;;;;;;;46.08;34.63;;;9.00;90.90;;;;;;4953892;28;20039;-81
2021/12/26 03:20:25;;;;;;;42.08;32.45;;;9.00;90.90;;;;;;4955267;29;20040;-81
2021/12/26 03:22:51;;;;;;;43.20;33.47;;;9.00;90.90;;;;;;4937830;29;20154;-81
2021/12/26 03:25:23;;;;;;;42.20;31.77;;;9.00;90.90;;;;;;4955051;28;20054;-81
2021/12/26 03:27:50;;;;;;;41.83;31.67;;;9.00;90.90;;;;;;4961007;28;20043;-81
2021/12/26 03:30:19;;;;;;;44.65;32.53;;;9.00;90.90;;;;;;4954824;29;20476;-81
2021/12/26 03:32:45;;;;;;;42.95;33.08;;;9.00;90.90;;;;;;4939735;29;20035;-80
2021/12/26 03:35:11;;;;;;;41.50;30.50;;;9.00;90.80;;;;;;4954921;29;20054;-81
2021/12/26 03:37:38;;;;;;;40.58;30.63;;;8.90;90.80;;;;;;4937140;29;20074;-80
2021/12/26 03:40:06;;;;;;;39.83;31.02;;;8.90;90.80;;;;;;4954841;28;20114;-80
2021/12/26 03:42:32;;;;;;;40.03;30.75;;;8.90;90.90;;;;;;4954638;29;20086;-80
2021/12/26 03:44:57;;;;;;;41.63;30.48;;;8.80;90.90;;;;;;4937642;29;20515;-81
2021/12/26 03:47:23;;;;;;;40.60;30.00;;;8.80;90.90;;;;;;4954587;28;20047;-82
2021/12/26 03:49:50;;;;;;;41.53;31.88;;;8.80;91.10;;;;;;4955144;29;20146;-82
2021/12/26 03:52:16;;;;;;;41.70;32.83;;;8.80;91.00;;;;;;4954800;29;20384;-82
2021/12/26 03:54:41;;;;;;;41.83;31.67;;;8.70;90.90;;;;;;4954446;29;20040;-83
2021/12/26 03:57:07;;;;;;;44.30;33.40;;;8.80;91.00;;;;;;4955124;29;20432;-82
2021/12/26 03:59:33;;;;;;;40.70;29.77;;;8.70;90.90;;;;;;4954509;28;20035;-81
2021/12/26 04:01:58;;;;;;;43.78;31.80;;;8.80;90.90;;;;;;4954129;28;20405;-81
2021/12/26 04:04:25;;;;;;;39.00;30.40;;;8.80;90.80;;;;;;4954156;29;20032;-81
2021/12/26 04:06:51;;;;;;;39.60;30.48;;;8.80;90.80;;;;;;4968921;28;20510;-81
2021/12/26 04:09:17;;;;;;;39.38;31.20;;;8.80;90.70;;;;;;4954620;29;20483;-82
2021/12/26 04:11:45;;;;;;;40.58;32.45;;;8.80;90.80;;;;;;4954853;28;20102;-80
2021/12/26 04:14:15;;;;;;;40.60;32.05;;;8.70;90.80;;;;;;4954839;28;20500;-81
2021/12/26 04:16:41;;;;;;;37.72;29.40;;;8.70;90.70;;;;;;4936557;29;20499;-81
2021/12/26 04:19:07;;;;;;;41.38;31.25;;;8.70;90.70;;;;;;4954484;28;20407;-80
2021/12/26 04:21:33;;;;;;;39.15;30.65;;;8.70;90.80;;;;;;4963856;28;20046;-80
2021/12/26 04:23:59;;;;;;;40.05;30.98;;;8.70;90.80;;;;;;4960131;28;20086;-81
2021/12/26 04:26:25;;;;;;;40.05;30.20;;;8.70;90.70;;;;;;4956047;28;20566;-81
2021/12/26 04:28:51;;;;;;;41.17;31.48;;;8.70;90.70;;;;;;4966742;28;20062;-80
2021/12/26 04:31:17;;;;;;;40.25;30.95;;;8.70;90.70;;;;;;4970933;28;20399;-81
2021/12/26 04:33:44;;;;;;;40.38;30.33;;;8.60;90.70;;;;;;4948845;29;20484;-81
2021/12/26 04:36:10;;;;;;;40.97;30.80;;;8.60;90.70;;;;;;4972251;28;20046;-81
2021/12/26 04:38:36;;;;;;;39.42;31.15;;;8.60;90.60;;;;;;4969570;28;20153;-82
2021/12/26 04:41:04;;;;;;;40.70;30.98;;;8.60;90.70;;;;;;4968922;28;20043;-82
2021/12/26 04:43:33;;;;;;;40.85;31.40;;;8.60;90.70;;;;;;4968677;28;20122;-82
2021/12/26 04:46:01;;;;;;;39.92;30.40;;;8.60;90.70;;;;;;4967721;28;20506;-82
2021/12/26 04:48:27;;;;;;;38.75;30.45;;;8.60;90.70;;;;;;4951264;28;20078;-82
2021/12/26 04:50:53;;;;;;;40.60;31.95;;;8.60;90.80;;;;;;4968057;28;20026;-81
2021/12/26 04:53:18;;;;;;;40.08;30.52;;;8.60;90.80;;;;;;4970323;28;20612;-81
2021/12/26 04:55:44;;;;;;;41.95;30.38;;;8.60;90.70;;;;;;4958417;28;20055;-82
2021/12/26 04:58:10;;;;;;;39.78;30.70;;;8.60;90.70;;;;;;4949649;29;20468;-82
2021/12/26 05:00:35;;;;;;;38.63;29.63;;;8.60;90.70;;;;;;4966837;28;20043;-82
2021/12/26 05:03:07;;;;;;;41.03;31.63;;;8.60;90.70;;;;;;4973432;28;20042;-82
2021/12/26 05:05:33;;;;;;;39.13;29.75;;;8.60;90.60;;;;;;4971942;28;20031;-82
2021/12/26 05:07:59;;;;;;;36.88;29.27;;;8.70;90.90;;;;;;4961882;28;20035;-82
2021/12/26 05:10:28;;;;;;;38.53;30.33;;;8.60;90.70;;;;;;4960809;28;20506;-82
2021/12/26 05:12:54;;;;;;;40.17;29.95;;;8.60;90.70;;;;;;4947503;28;20035;-84
2021/12/26 05:15:21;;;;;;;39.95;29.48;;;8.60;90.70;;;;;;4953213;29;20447;-83
2021/12/26 05:17:48;;;;;;;36.63;29.23;;;8.60;90.70;;;;;;4972654;28;20122;-82
2021/12/26 05:20:15;;;;;;;40.22;30.70;;;8.60;90.70;;;;;;4963249;28;20057;-82
2021/12/26 05:22:41;;;;;;;55.45;37.38;;;8.60;90.80;;;;;;4956050;28;20038;-81
2021/12/26 05:25:07;;;;;;;45.00;31.60;;;8.40;90.90;;;;;;4959596;28;20041;-81
2021/12/26 05:27:34;;;;;;;42.15;29.90;;;8.40;91.00;;;;;;4967857;28;20027;-81
2021/12/26 05:30:00;;;;;;;53.33;35.30;;;8.40;91.10;;;;;;4962880;28;20456;-81
2021/12/26 05:32:25;;;;;;;52.22;32.88;;;8.20;91.40;;;;;;4972904;28;20066;-82
2021/12/26 05:34:51;;;;;;;50.00;33.47;;;8.20;91.50;;;;;;4941384;29;20046;-82
2021/12/26 05:37:17;;;;;;;49.78;33.45;;;8.20;91.40;;;;;;4964074;28;20045;-82
2021/12/26 05:39:45;;;;;;;47.47;32.38;;;8.30;91.40;;;;;;4965715;28;20039;-82
2021/12/26 05:42:15;;;;;;;45.72;32.72;;;8.30;91.40;;;;;;4970402;28;20039;-82
2021/12/26 05:44:44;;;;;;;58.55;36.83;;;8.40;91.40;;;;;;4961188;28;20043;-84
2021/12/26 05:47:11;;;;;;;42.72;29.40;;;8.40;91.20;;;;;;4970939;28;20031;-84
2021/12/26 05:49:36;;;;;;;40.83;29.15;;;8.40;91.30;;;;;;4957201;28;20147;-84
2021/12/26 05:52:03;;;;;;;36.50;27.45;;;8.30;91.30;;;;;;4969807;28;20166;-84
2021/12/26 05:54:28;;;;;;;40.15;29.38;;;8.30;91.30;;;;;;4943488;28;20047;-83
2021/12/26 05:56:54;;;;;;;40.88;29.42;;;8.20;91.40;;;;;;4943684;28;20533;-83
2021/12/26 05:59:19;;;;;;;39.08;27.63;;;8.20;91.40;;;;;;4968928;28;20039;-83
2021/12/26 06:01:45;;;;;;;38.70;26.52;;;8.30;91.40;;;;;;4967396;28;20046;-83
2021/12/26 06:04:11;;;;;;;37.95;27.30;;;8.30;91.30;;;;;;4940971;29;20035;-82
2021/12/26 06:06:37;;;;;;;38.72;28.08;;;8.30;91.30;;;;;;4956941;28;20031;-80
2021/12/26 06:09:04;;;;;;;39.00;28.65;;;8.30;91.40;;;;;;4971582;28;20042;-82
2021/12/26 06:11:30;;;;;;;38.72;27.63;;;8.30;91.50;;;;;;4965306;28;20058;-83
2021/12/26 06:13:55;;;;;;;37.88;28.20;;;8.30;91.40;;;;;;4964296;28;20039;-81
2021/12/26 06:16:21;;;;;;;36.35;27.55;;;8.30;91.30;;;;;;4956817;28;20520;-81
2021/12/26 06:18:47;;;;;;;39.75;27.40;;;8.30;91.30;;;;;;4967933;28;20045;-81
2021/12/26 06:21:12;;;;;;;40.53;28.92;;;8.30;91.40;;;;;;4969765;28;20042;-81
2021/12/26 06:23:38;;;;;;;41.95;29.20;;;8.30;91.40;;;;;;4957032;28;20499;-80
2021/12/26 06:26:04;;;;;;;37.08;26.85;;;8.30;91.40;;;;;;4969111;28;20499;-78
2021/12/26 06:28:29;;;;;;;38.83;28.27;;;8.30;91.30;;;;;;4959174;28;20043;-78
2021/12/26 06:30:55;;;;;;;42.03;29.60;;;8.30;91.30;;;;;;4968664;28;20035;-78
2021/12/26 06:33:21;;;;;;;36.47;27.48;;;8.30;91.30;;;;;;4963226;28;20038;-77
2021/12/26 06:35:47;;;;;;;39.67;29.00;;;8.30;91.40;;;;;;4961162;28;20475;-77
2021/12/26 06:38:12;;;;;;;42.88;29.67;;;8.30;91.40;;;;;;4975158;28;20039;-78
2021/12/26 06:40:38;;;;;;;37.60;26.98;;;8.30;91.40;;;;;;4972881;28;20122;-78
2021/12/26 06:43:05;;;;;;;39.47;28.35;;;8.20;91.40;;;;;;4960923;28;20410;-79
2021/12/26 06:45:31;;;;;;;43.25;29.58;;;8.20;91.40;;;;;;4959786;28;20054;-79
2021/12/26 06:48:01;;;;;;;41.40;27.90;;;8.20;91.40;;;;;;4960010;28;20478;-79
2021/12/26 06:50:27;;;;;;;32.58;25.38;;;8.20;91.50;;;;;;4958101;28;20027;-78
2021/12/26 06:52:53;;;;;;;36.92;27.42;;;8.20;91.40;;;;;;4955582;28;20047;-78
2021/12/26 06:55:19;;;;;;;32.70;26.38;;;8.20;91.40;;;;;;4954970;29;20102;-78
2021/12/26 06:57:45;;;;;;;30.98;25.25;;;8.30;91.30;;;;;;4956750;28;20078;-78
2021/12/26 07:00:14;;;;;;;33.10;25.73;;;8.30;91.10;;;;;;4957057;28;20039;-78
2021/12/26 07:02:41;;;;;;;32.00;25.05;;;8.30;91.00;;;;;;4955667;28;20543;-77
2021/12/26 07:05:07;;;;;;;29.60;23.42;;;8.30;90.90;;;;;;4954985;28;20480;-77
2021/12/26 07:07:32;;;;;;;34.28;26.38;;;8.30;91.00;;;;;;4955507;28;20023;-78
2021/12/26 07:09:59;;;;;;;32.03;24.85;;;8.30;91.10;;;;;;4953179;28;20039;-78
2021/12/26 07:12:24;;;;;;;31.92;24.45;;;8.30;91.10;;;;;;4969792;28;20042;-78
2021/12/26 07:14:50;;;;;;;31.25;24.10;;;8.30;91.00;;;;;;4937811;28;20039;-78
2021/12/26 07:17:16;;;;;;;30.73;24.38;;;8.30;90.90;;;;;;4955210;28;20043;-80
2021/12/26 07:19:42;;;;;;;29.70;23.20;;;8.30;91.00;;;;;;4963166;28;20039;-78
2021/12/26 07:22:08;;;;;;;27.35;21.65;;;8.20;91.00;;;;;;4960433;28;20090;-80
2021/12/26 07:24:34;;;;;;;29.50;23.23;;;8.20;91.00;;;;;;4932985;28;20062;-80
2021/12/26 07:26:59;;;;;;;29.38;23.73;;;8.20;91.00;;;;;;4955761;28;20086;-80
2021/12/26 07:29:25;;;;;;;27.92;22.33;;;8.20;91.00;;;;;;4956133;28;20070;-80
2021/12/26 07:31:51;;;;;;;33.88;22.92;;;8.20;91.00;;;;;;4957035;28;20041;-80
2021/12/26 07:34:17;;;;;;;32.47;22.65;;;8.20;91.40;;;;;;4956488;28;20086;-79
2021/12/26 07:36:43;;;;;;;30.10;22.33;;;8.20;91.20;;;;;;4954530;28;20055;-80
2021/12/26 07:39:08;;;;;;;29.63;23.15;;;8.20;91.10;;;;;;4937305;29;20031;-82
2021/12/26 07:41:34;;;;;;;31.40;24.10;;;8.10;91.10;;;;;;4955075;28;20483;-82
2021/12/26 07:44:01;;;;;;;72.70;34.30;;;8.10;91.10;;;;;;4960653;28;20050;-80
2021/12/26 07:46:26;;;;;;;34.42;24.25;;;8.00;91.10;;;;;;4939772;29;20035;-79
2021/12/26 07:48:52;;;;;;;29.58;22.38;;;8.00;91.40;;;;;;4941374;28;20035;-78
2021/12/26 07:51:20;;;;;;;27.98;22.30;;;7.90;91.40;;;;;;4955290;28;20027;-79
2021/12/26 07:53:47;;;;;;;28.02;22.83;;;7.90;91.50;;;;;;4958196;28;20137;-78
2021/12/26 07:56:14;;;;;;;26.42;20.95;;;8.00;91.50;;;;;;4954340;28;20061;-80
2021/12/26 07:58:40;;;;;;;27.00;21.50;;;8.20;91.60;;;;;;4953625;28;20498;-79
2021/12/26 08:01:06;;;;;;;30.95;21.92;;;8.20;91.40;;;;;;4974213;28;20484;-83
2021/12/26 08:03:36;;;;;;;35.08;23.27;;;8.30;91.10;;;;;;4968441;28;20074;-80
2021/12/26 08:06:02;;;;;;;30.92;22.05;;;8.30;90.90;;;;;;4964602;28;20030;-80
2021/12/26 08:08:28;;;;;;;43.92;28.67;;;8.20;90.80;;;;;;4956672;28;20542;-80
2021/12/26 08:10:54;;;;;;;24.83;20.88;;;8.10;90.70;;;;;;4946625;28;20452;-79
2021/12/26 08:13:19;;;;;;;25.08;21.00;;;8.00;91.10;;;;;;4959082;28;20067;-80
2021/12/26 08:15:45;;;;;;;24.65;20.38;;;8.00;91.10;;;;;;4966422;28;20085;-80
2021/12/26 08:18:11;;;;;;;23.73;20.15;;;8.10;91.00;;;;;;4956494;28;20488;-83
2021/12/26 08:20:37;;;;;;;23.95;20.92;;;8.10;91.00;;;;;;4936339;29;20130;-81
2021/12/26 08:23:04;;;;;;;25.15;20.38;;;8.00;90.80;;;;;;4950481;28;20052;-81
2021/12/26 08:25:30;;;;;;;24.08;20.75;;;8.10;90.80;;;;;;4937733;29;20032;-87
2021/12/26 08:27:56;;;;;;;20.00;17.73;;;8.10;90.70;;;;;;4958257;28;20062;-81
2021/12/26 08:30:22;;;;;;;24.30;19.67;;;8.10;90.70;;;;;;4953139;28;20035;-81
2021/12/26 08:32:52;;;;;;;23.55;20.00;;;8.10;90.60;;;;;;4941679;29;20404;-80
2021/12/26 08:35:18;;;;;;;26.80;20.63;;;8.00;90.60;;;;;;4936674;29;20190;-80
2021/12/26 08:37:46;;;;;;;30.65;20.40;;;8.00;90.60;;;;;;4936735;28;20122;-80
2021/12/26 08:40:13;;;;;;;35.40;22.20;;;7.90;90.80;;;;;;4954449;29;20031;-78
2021/12/26 08:42:38;;;;;;;38.05;20.50;;;7.80;90.90;;;;;;4940847;28;20050;-78
2021/12/26 08:45:04;;;;;;;30.92;22.17;;;7.80;90.90;;;;;;4961326;28;20031;-80
2021/12/26 08:47:30;;;;;;;31.80;22.42;;;7.80;91.00;;;;;;4939616;28;20031;-80
2021/12/26 08:49:56;;;;;;;28.55;19.80;;;7.80;91.10;;;;;;4954257;29;20476;-81
2021/12/26 08:52:22;;;;;;;28.00;21.17;;;7.80;91.10;;;;;;4948486;29;20388;-85
2021/12/26 08:54:48;;;;;;;29.60;19.92;;;7.80;91.10;;;;;;4951228;29;20051;-80
2021/12/26 08:57:15;;;;;;;30.02;19.65;;;7.90;91.20;;;;;;4954470;29;20039;-80
2021/12/26 08:59:43;;;;;;;23.35;18.13;;;7.80;91.10;;;;;;4938482;29;20064;-79
2021/12/26 09:02:09;;;;;;;61.72;22.02;;;7.80;91.10;;;;;;4936184;29;20035;-79
2021/12/26 09:04:36;;;;;;;27.15;20.00;;;7.70;91.20;;;;;;4954354;29;20118;-79
2021/12/26 09:07:03;;;;;;;36.97;18.60;;;7.70;91.30;;;;;;4954282;29;20044;-79
2021/12/26 09:09:29;;;;;;;25.77;19.17;;;7.60;91.10;;;;;;4953880;29;20031;-79
2021/12/26 09:11:56;;;;;;;56.65;20.95;;;7.60;91.20;;;;;;4951101;29;20119;-83
2021/12/26 09:14:21;;;;;;;29.00;18.83;;;7.60;91.10;;;;;;4941327;28;20058;-81
2021/12/26 09:16:47;;;;;;;32.42;19.30;;;7.50;91.20;;;;;;4957893;29;20367;-82
2021/12/26 09:19:13;;;;;;;44.28;21.67;;;7.40;91.10;;;;;;4958215;29;20118;-81
2021/12/26 09:21:39;;;;;;;24.50;17.77;;;7.40;91.20;;;;;;4957870;29;20032;-80
2021/12/26 09:24:05;;;;;;;23.08;19.60;;;7.30;91.40;;;;;;4940511;29;20537;-80
2021/12/26 09:26:31;;;;;;;22.65;17.50;;;7.40;91.40;;;;;;4950484;29;20031;-81
2021/12/26 09:28:58;;;;;;;28.05;20.70;;;7.40;91.20;;;;;;4948944;29;20044;-79
2021/12/26 09:31:24;;;;;;;22.13;17.52;;;7.40;91.20;;;;;;4948071;28;20065;-79
2021/12/26 09:33:50;;;;;;;23.25;18.88;;;7.30;91.30;;;;;;4941320;29;20407;-79
2021/12/26 09:36:16;;;;;;;27.50;21.83;;;7.30;91.20;;;;;;4971993;28;20035;-79
2021/12/26 09:38:41;;;;;;;40.08;30.80;;;7.40;91.30;;;;;;4939763;29;20070;-81
2021/12/26 09:41:08;;;;;;;20.20;17.48;;;7.20;91.10;;;;;;4951835;29;20037;-80
2021/12/26 09:43:33;;;;;;;22.00;19.15;;;7.30;91.40;;;;;;4950008;28;20566;-80
2021/12/26 09:45:59;;;;;;;19.83;17.15;;;7.40;91.30;;;;;;4957043;28;20035;-81
2021/12/26 09:48:25;;;;;;;19.25;16.52;;;7.40;91.20;;;;;;4932465;29;20408;-80
2021/12/26 09:50:50;;;;;;;18.95;16.95;;;7.40;91.10;;;;;;4947889;29;20443;-81
2021/12/26 09:53:16;;;;;;;22.10;19.70;;;7.50;91.00;;;;;;4957226;29;20055;-81
2021/12/26 09:55:42;;;;;;;19.35;16.85;;;7.50;90.90;;;;;;4957041;28;20047;-80
2021/12/26 09:58:07;;;;;;;21.90;18.73;;;7.50;90.90;;;;;;4939755;29;20062;-81
2021/12/26 10:00:40;;;;;;;20.52;18.27;;;7.40;91.00;;;;;;4957086;29;20050;-81
2021/12/26 10:03:11;;;;;;;20.13;17.65;;;7.40;91.00;;;;;;4956517;29;20041;-81
2021/12/26 10:06:12;;;;;;;26.70;23.38;;;7.30;91.30;;;;;;4956767;29;20031;-80
2021/12/26 10:08:57;;;;;;;;;;;7.30;91.40;;;;;;4972109;28;20031;-80
2021/12/26 10:11:26;;;;;;;25.05;18.98;;;7.20;91.40;;;;;;4956425;29;19945;-81
2021/12/26 10:13:56;;;;;;;23.75;19.70;;;7.30;91.50;;;;;;4956913;29;20051;-80
2021/12/26 10:16:25;;;;;;;24.13;21.08;;;7.40;91.40;;;;;;4956714;29;20035;-80
2021/12/26 10:18:53;;;;;;;21.15;18.60;;;7.50;91.30;;;;;;4929019;29;20035;-80
2021/12/26 10:21:29;;;;;;;24.23;20.92;;;7.60;91.20;;;;;;4950958;29;20042;-81
2021/12/26 10:24:17;;;;;;;21.27;17.90;;;7.70;90.90;;;;;;4956279;29;20209;-81
2021/12/26 10:26:58;;;;;;;22.50;19.58;;;7.70;90.80;;;;;;4953413;28;20051;-82
2021/12/26 10:29:32;;;;;;;21.65;19.15;;;7.70;90.80;;;;;;4955650;29;20031;-82
2021/12/26 10:32:11;;;;;;;22.35;19.27;;;7.70;90.80;;;;;;4955246;29;20114;-81
2021/12/26 10:34:41;;;;;;;22.83;19.40;;;7.80;90.70;;;;;;4949665;28;20031;-81
2021/12/26 10:37:14;;;;;;;21.73;18.55;;;7.80;91.00;;;;;;4956523;29;20360;-81
2021/12/26 10:39:45;;;;;;;21.20;17.98;;;7.90;90.70;;;;;;4956309;29;20042;-81
2021/12/26 10:42:19;;;;;;;20.65;17.45;;;7.90;90.70;;;;;;4955148;29;20035;-81
2021/12/26 10:44:51;;;;;;;22.77;20.13;;;8.00;90.70;;;;;;4952102;29;20173;-80
2021/12/26 10:47:19;;;;;;;21.63;18.27;;;7.80;90.50;;;;;;4955320;29;20043;-80
2021/12/26 10:50:03;;;;;;;20.63;18.40;;;7.80;90.70;;;;;;4956016;29;20040;-80
2021/12/26 10:52:38;;;;;;;29.40;24.35;;;7.90;90.70;;;;;;4970872;28;20508;-80
2021/12/26 10:55:09;;;;;;;21.10;18.75;;;7.80;90.80;;;;;;4955921;29;20101;-80
2021/12/26 10:57:36;;;;;;;25.05;21.02;;;7.80;91.10;;;;;;4953125;28;20148;-80
2021/12/26 11:00:25;;;;;;;24.48;19.80;;;7.80;91.10;;;;;;4971401;28;20098;-81
2021/12/26 11:03:00;;;;;;;23.17;19.77;;;7.90;90.80;;;;;;4940373;28;20054;-81
2021/12/26 11:05:35;;;;;;;23.55;19.98;;;8.00;90.80;;;;;;4954742;29;20036;-81
2021/12/26 11:08:06;;;;;;;25.80;20.50;;;8.20;90.70;;;;;;4954274;29;20027;-81
2021/12/26 11:10:35;;;;;;;22.55;20.02;;;8.30;90.70;;;;;;4952063;28;20102;-81
2021/12/26 11:13:03;;;;;;;21.25;17.95;;;8.40;90.60;;;;;;4939465;29;20681;-81
2021/12/26 11:15:33;;;;;;;20.33;17.80;;;8.40;90.10;;;;;;4953862;29;20047;-81
2021/12/26 11:18:01;;;;;;;21.75;19.05;;;8.40;90.30;;;;;;4960675;28;20043;-81
2021/12/26 11:20:32;;;;;;;23.88;20.27;;;8.40;90.20;;;;;;4953764;29;20067;-84
2021/12/26 11:22:58;;;;;;;24.70;21.75;;;8.40;89.90;;;;;;4961118;28;20097;-82
2021/12/26 11:25:25;;;;;;;24.80;22.13;;;8.40;90.00;;;;;;4937259;28;20136;-82
2021/12/26 11:27:51;;;;;;;22.65;19.77;;;8.20;90.30;;;;;;4936303;29;20066;-80
2021/12/26 11:30:18;;;;;;;24.17;21.58;;;8.10;90.70;;;;;;4936222;29;20515;-80
2021/12/26 11:32:44;;;;;;;25.63;21.67;;;8.20;90.60;;;;;;4937973;28;20787;-80
2021/12/26 11:35:10;;;;;;;20.30;18.17;;;8.40;90.40;;;;;;4966086;28;20039;-81
2021/12/26 11:37:39;;;;;;;25.73;22.85;;;8.40;90.30;;;;;;4967688;28;20046;-81
2021/12/26 11:40:21;;;;;;;21.20;19.00;;;8.20;90.40;;;;;;4955748;28;20376;-81
2021/12/26 11:43:05;;;;;;;22.42;19.40;;;8.30;90.60;;;;;;4939995;28;20070;-80
2021/12/26 11:45:43;;;;;;;24.52;20.25;;;8.50;90.50;;;;;;4959443;28;20038;-82
2021/12/26 11:48:40;;;;;;;24.38;21.27;;;8.60;90.40;;;;;;4939518;28;20046;-82
2021/12/26 11:51:36;;;;;;;22.67;20.27;;;8.70;90.40;;;;;;4945864;28;20026;-81
2021/12/26 11:54:30;;;;;;;24.20;20.90;;;8.90;90.20;;;;;;4965939;28;20090;-81
2021/12/26 11:57:09;;;;;;;24.75;20.35;;;9.00;90.20;;;;;;4953370;28;20051;-81
2021/12/26 11:59:47;;;;;;;24.63;20.83;;;9.00;90.00;;;;;;4962634;28;20468;-81
2021/12/26 12:02:32;;;;;;;23.45;20.92;;;9.10;90.00;;;;;;4966230;28;20090;-81
2021/12/26 12:05:07;;;;;;;23.83;19.98;;;9.20;89.80;;;;;;4956042;28;20086;-81
2021/12/26 12:07:49;;;;;;;23.85;21.20;;;9.30;89.50;;;;;;4964360;28;20439;-81
2021/12/26 12:10:44;;;;;;;23.30;20.63;;;9.30;89.20;;;;;;4953422;29;20039;-81
2021/12/26 12:13:13;;;;;;;23.45;20.90;;;9.30;89.10;;;;;;4961869;28;20027;-81
2021/12/26 12:15:46;;;;;;;23.77;21.13;;;9.30;89.10;;;;;;4966287;28;20050;-81
2021/12/26 12:18:14;;;;;;;26.30;22.55;;;9.40;89.20;;;;;;4938697;29;20496;-81
2021/12/26 12:20:41;;;;;;;24.35;21.67;;;9.50;89.30;;;;;;4955415;28;20066;-81
2021/12/26 12:23:09;;;;;;;23.85;21.27;;;9.50;89.20;;;;;;4958704;28;20084;-86
2021/12/26 12:25:49;;;;;;;25.27;22.33;;;9.60;89.70;;;;;;4952068;28;20388;-80
2021/12/26 12:28:31;;;;;;;24.50;21.10;;;9.60;89.30;;;;;;4951430;29;20397;-81
2021/12/26 12:31:07;;;;;;;23.42;20.52;;;9.60;89.10;;;;;;4952672;29;20039;-81
2021/12/26 12:33:35;;;;;;;25.70;22.88;;;9.70;89.10;;;;;;4952217;29;20054;-81
2021/12/26 12:36:11;;;;;;;25.35;22.65;;;9.80;88.90;;;;;;4953887;28;20431;-81
2021/12/26 12:38:42;;;;;;;24.63;22.02;;;9.70;89.00;;;;;;4930979;29;20569;-81
2021/12/26 12:41:29;;;;;;;25.88;23.02;;;9.80;88.60;;;;;;4933248;28;20681;-81
2021/12/26 12:43:59;;;;;;;24.90;22.20;;;9.70;88.30;;;;;;4934424;29;20506;-81
2021/12/26 12:46:25;;;;;;;26.98;23.10;;;9.70;88.40;;;;;;4934277;29;20166;-81
2021/12/26 12:49:00;;;;;;;24.73;22.02;;;9.70;88.40;;;;;;4951986;28;20035;-81
2021/12/26 12:51:25;;;;;;;25.52;21.92;;;9.70;88.40;;;;;;4952027;29;20035;-81